sensor_id;sensor_type;location;lat;lon;timestamp;P1;durP1;ratioP1;P2;durP2;ratioP2
7033;SDS011;3558;53.176;10.412;2024-03-25T03:47:18;3.03;;;1.10;;
7033;SDS011;3558;53.176;10.412;2024-03-25T03:49:44;2.55;;;1.00;;
7033;SDS011;3558;53.176;10.412;2024-03-25T03:52:09;3.47;;;1.20;;
7033;SDS011;3558;53.176;10.412;2024-03-25T03:54:35;2.03;;;1.00;;
7033;SDS011;3558;53.176;10.412;2024-03-25T03:57:00;2.40;;;1.00;;
7033;SDS011;3558;53.176;10.412;2024-03-25T03:59:26;2.67;;;0.90;;
7033;SDS011;3558;53.176;10.412;2024-03-25T04:01:51;2.50;;;1.10;;
7033;SDS011;3558;53.176;10.412;2024-03-25T04:04:17;2.40;;;1.10;;
7033;SDS011;3558;53.176;10.412;2024-03-25T04:06:42;2.08;;;1.00;;
7033;SDS011;3558;53.176;10.412;2024-03-25T04:09:08;2.80;;;1.00;;
7033;SDS011;3558;53.176;10.412;2024-03-25T04:11:37;2.95;;;1.00;;
7033;SDS011;3558;53.176;10.412;2024-03-25T04:14:03;3.00;;;1.10;;
7033;SDS011;3558;53.176;10.412;2024-03-25T04:16:28;3.55;;;1.42;;
7033;SDS011;3558;53.176;10.412;2024-03-25T04:18:55;2.38;;;1.00;;
7033;SDS011;3558;53.176;10.412;2024-03-25T04:21:21;2.50;;;1.05;;
7033;SDS011;3558;53.176;10.412;2024-03-25T04:23:47;3.13;;;1.00;;
7033;SDS011;3558;53.176;10.412;2024-03-25T04:26:14;3.25;;;1.00;;
7033;SDS011;3558;53.176;10.412;2024-03-25T04:28:40;2.40;;;0.90;;
7033;SDS011;3558;53.176;10.412;2024-03-25T04:31:07;2.20;;;0.90;;
7033;SDS011;3558;53.176;10.412;2024-03-25T04:33:33;2.70;;;0.90;;
7033;SDS011;3558;53.176;10.412;2024-03-25T04:35:58;3.08;;;0.90;;
7033;SDS011;3558;53.176;10.412;2024-03-25T04:38:24;2.17;;;1.00;;
7033;SDS011;3558;53.176;10.412;2024-03-25T04:40:49;1.80;;;0.80;;
7033;SDS011;3558;53.176;10.412;2024-03-25T04:43:15;2.13;;;0.97;;
7033;SDS011;3558;53.176;10.412;2024-03-25T04:45:41;2.28;;;0.90;;
7033;SDS011;3558;53.176;10.412;2024-03-25T04:48:07;1.90;;;0.70;;
7033;SDS011;3558;53.176;10.412;2024-03-25T04:50:35;1.92;;;0.85;;
7033;SDS011;3558;53.176;10.412;2024-03-25T04:53:01;2.25;;;0.80;;
7033;SDS011;3558;53.176;10.412;2024-03-25T04:55:27;2.05;;;0.80;;
7033;SDS011;3558;53.176;10.412;2024-03-25T04:57:52;2.17;;;0.80;;
7033;SDS011;3558;53.176;10.412;2024-03-25T05:00:18;2.15;;;0.88;;
7033;SDS011;3558;53.176;10.412;2024-03-25T05:02:44;3.55;;;0.93;;
7033;SDS011;3558;53.176;10.412;2024-03-25T05:05:09;2.50;;;0.90;;
7033;SDS011;3558;53.176;10.412;2024-03-25T05:07:35;1.97;;;0.90;;
7033;SDS011;3558;53.176;10.412;2024-03-25T05:10:01;1.90;;;0.90;;
7033;SDS011;3558;53.176;10.412;2024-03-25T05:12:26;1.67;;;0.90;;
7033;SDS011;3558;53.176;10.412;2024-03-25T05:14:55;1.45;;;0.82;;
7033;SDS011;3558;53.176;10.412;2024-03-25T05:17:21;2.28;;;0.90;;
7033;SDS011;3558;53.176;10.412;2024-03-25T05:19:46;2.53;;;1.00;;
7033;SDS011;3558;53.176;10.412;2024-03-25T05:22:12;2.00;;;1.00;;
7033;SDS011;3558;53.176;10.412;2024-03-25T05:24:37;2.53;;;1.10;;
7033;SDS011;3558;53.176;10.412;2024-03-25T05:27:03;2.63;;;1.00;;
7033;SDS011;3558;53.176;10.412;2024-03-25T05:29:28;2.70;;;1.10;;
7033;SDS011;3558;53.176;10.412;2024-03-25T05:31:58;1.97;;;1.00;;
7033;SDS011;3558;53.176;10.412;2024-03-25T05:34:27;3.15;;;1.40;;
7033;SDS011;3558;53.176;10.412;2024-03-25T05:36:53;2.50;;;1.10;;
7033;SDS011;3558;53.176;10.412;2024-03-25T05:39:19;2.38;;;1.13;;
7033;SDS011;3558;53.176;10.412;2024-03-25T05:41:45;2.72;;;0.90;;
7033;SDS011;3558;53.176;10.412;2024-03-25T05:44:11;2.17;;;1.00;;
7033;SDS011;3558;53.176;10.412;2024-03-25T05:46:38;3.23;;;1.30;;
7033;SDS011;3558;53.176;10.412;2024-03-25T05:49:04;2.83;;;1.27;;
7033;SDS011;3558;53.176;10.412;2024-03-25T05:51:30;3.13;;;1.20;;
7033;SDS011;3558;53.176;10.412;2024-03-25T05:53:55;1.35;;;0.90;;
7033;SDS011;3558;53.176;10.412;2024-03-25T05:56:21;2.30;;;1.20;;
7033;SDS011;3558;53.176;10.412;2024-03-25T05:58:47;2.45;;;1.00;;
7033;SDS011;3558;53.176;10.412;2024-03-25T06:01:13;1.67;;;1.00;;
7033;SDS011;3558;53.176;10.412;2024-03-25T06:03:38;2.35;;;1.25;;
7033;SDS011;3558;53.176;10.412;2024-03-25T06:06:04;2.93;;;1.20;;
7033;SDS011;3558;53.176;10.412;2024-03-25T06:08:29;1.93;;;1.00;;
7033;SDS011;3558;53.176;10.412;2024-03-25T06:11:00;3.25;;;1.13;;
7033;SDS011;3558;53.176;10.412;2024-03-25T06:13:26;2.28;;;1.00;;
7033;SDS011;3558;53.176;10.412;2024-03-25T06:15:52;2.30;;;1.00;;
7033;SDS011;3558;53.176;10.412;2024-03-25T06:18:17;3.10;;;1.00;;
7033;SDS011;3558;53.176;10.412;2024-03-25T06:20:43;1.58;;;0.90;;
7033;SDS011;3558;53.176;10.412;2024-03-25T06:23:08;1.20;;;1.00;;
7033;SDS011;3558;53.176;10.412;2024-03-25T06:25:34;2.10;;;1.10;;
7033;SDS011;3558;53.176;10.412;2024-03-25T06:28:00;2.38;;;1.10;;
7033;SDS011;3558;53.176;10.412;2024-03-25T06:30:26;3.55;;;1.23;;
7033;SDS011;3558;53.176;10.412;2024-03-25T06:33:10;2.30;;;0.93;;
7033;SDS011;3558;53.176;10.412;2024-03-25T06:35:54;2.45;;;1.10;;
7033;SDS011;3558;53.176;10.412;2024-03-25T06:38:20;2.22;;;1.00;;
7033;SDS011;3558;53.176;10.412;2024-03-25T06:40:46;4.20;;;1.20;;
7033;SDS011;3558;53.176;10.412;2024-03-25T06:43:11;3.25;;;1.15;;
7033;SDS011;3558;53.176;10.412;2024-03-25T06:45:37;2.15;;;1.00;;
7033;SDS011;3558;53.176;10.412;2024-03-25T06:48:03;1.60;;;1.20;;
7033;SDS011;3558;53.176;10.412;2024-03-25T06:50:28;2.05;;;1.00;;
7033;SDS011;3558;53.176;10.412;2024-03-25T06:52:54;2.07;;;1.00;;
7033;SDS011;3558;53.176;10.412;2024-03-25T06:55:20;1.33;;;0.87;;
7033;SDS011;3558;53.176;10.412;2024-03-25T06:57:47;2.83;;;1.17;;
7033;SDS011;3558;53.176;10.412;2024-03-25T07:00:13;1.95;;;1.10;;
7033;SDS011;3558;53.176;10.412;2024-03-25T07:02:39;2.10;;;1.00;;
7033;SDS011;3558;53.176;10.412;2024-03-25T07:05:05;3.10;;;1.00;;
7033;SDS011;3558;53.176;10.412;2024-03-25T07:07:31;2.90;;;1.20;;
7033;SDS011;3558;53.176;10.412;2024-03-25T07:09:57;1.95;;;1.00;;
7033;SDS011;3558;53.176;10.412;2024-03-25T07:12:22;2.03;;;1.02;;
7033;SDS011;3558;53.176;10.412;2024-03-25T07:14:48;2.42;;;1.10;;
7033;SDS011;3558;53.176;10.412;2024-03-25T07:17:14;3.20;;;1.20;;
7033;SDS011;3558;53.176;10.412;2024-03-25T07:19:39;2.93;;;1.00;;
7033;SDS011;3558;53.176;10.412;2024-03-25T07:22:05;3.23;;;1.00;;
7033;SDS011;3558;53.176;10.412;2024-03-25T07:24:30;1.98;;;0.93;;
7033;SDS011;3558;53.176;10.412;2024-03-25T07:26:55;2.30;;;1.03;;
7033;SDS011;3558;53.176;10.412;2024-03-25T07:29:21;2.30;;;1.00;;
7033;SDS011;3558;53.176;10.412;2024-03-25T07:31:46;2.40;;;1.00;;
7033;SDS011;3558;53.176;10.412;2024-03-25T07:34:12;1.87;;;1.00;;
7033;SDS011;3558;53.176;10.412;2024-03-25T07:36:38;2.50;;;0.90;;
7033;SDS011;3558;53.176;10.412;2024-03-25T07:39:03;2.00;;;0.97;;
7033;SDS011;3558;53.176;10.412;2024-03-25T07:41:31;2.50;;;1.10;;
7033;SDS011;3558;53.176;10.412;2024-03-25T07:43:56;4.00;;;1.30;;
7033;SDS011;3558;53.176;10.412;2024-03-25T07:46:22;3.13;;;1.10;;
7033;SDS011;3558;53.176;10.412;2024-03-25T07:48:47;1.70;;;0.90;;
7033;SDS011;3558;53.176;10.412;2024-03-25T07:51:13;3.13;;;1.10;;
7033;SDS011;3558;53.176;10.412;2024-03-25T07:53:38;3.22;;;1.02;;
7033;SDS011;3558;53.176;10.412;2024-03-25T07:56:04;1.70;;;0.90;;
7033;SDS011;3558;53.176;10.412;2024-03-25T07:58:29;3.30;;;0.93;;
7033;SDS011;3558;53.176;10.412;2024-03-25T08:00:55;2.40;;;1.10;;
7033;SDS011;3558;53.176;10.412;2024-03-25T08:03:21;3.30;;;1.20;;
7033;SDS011;3558;53.176;10.412;2024-03-25T08:05:47;3.63;;;1.20;;
7033;SDS011;3558;53.176;10.412;2024-03-25T08:08:12;3.33;;;1.00;;
7033;SDS011;3558;53.176;10.412;2024-03-25T08:10:38;2.40;;;0.90;;
7033;SDS011;3558;53.176;10.412;2024-03-25T08:13:03;3.60;;;1.33;;
7033;SDS011;3558;53.176;10.412;2024-03-25T08:15:29;3.63;;;1.13;;
7033;SDS011;3558;53.176;10.412;2024-03-25T08:17:54;3.30;;;1.20;;
7033;SDS011;3558;53.176;10.412;2024-03-25T08:20:20;3.13;;;1.00;;
7033;SDS011;3558;53.176;10.412;2024-03-25T08:22:45;2.08;;;1.10;;
7033;SDS011;3558;53.176;10.412;2024-03-25T08:25:11;2.83;;;1.07;;
7033;SDS011;3558;53.176;10.412;2024-03-25T08:27:37;2.37;;;1.03;;
7033;SDS011;3558;53.176;10.412;2024-03-25T08:30:02;3.43;;;1.33;;
7033;SDS011;3558;53.176;10.412;2024-03-25T08:32:28;3.20;;;1.25;;
7033;SDS011;3558;53.176;10.412;2024-03-25T08:34:54;4.75;;;1.20;;
7033;SDS011;3558;53.176;10.412;2024-03-25T08:37:19;3.85;;;1.30;;
7033;SDS011;3558;53.176;10.412;2024-03-25T08:39:45;3.38;;;0.90;;
7033;SDS011;3558;53.176;10.412;2024-03-25T08:42:11;3.60;;;1.20;;
7033;SDS011;3558;53.176;10.412;2024-03-25T08:44:37;3.03;;;1.00;;
7033;SDS011;3558;53.176;10.412;2024-03-25T08:47:02;3.07;;;1.00;;
7033;SDS011;3558;53.176;10.412;2024-03-25T08:49:28;2.95;;;1.00;;
7033;SDS011;3558;53.176;10.412;2024-03-25T08:51:53;3.47;;;0.90;;
7033;SDS011;3558;53.176;10.412;2024-03-25T08:54:19;3.23;;;1.10;;
7033;SDS011;3558;53.176;10.412;2024-03-25T08:56:44;5.30;;;1.20;;
7033;SDS011;3558;53.176;10.412;2024-03-25T08:59:10;4.07;;;1.10;;
7033;SDS011;3558;53.176;10.412;2024-03-25T09:01:35;5.50;;;1.20;;
7033;SDS011;3558;53.176;10.412;2024-03-25T09:04:01;4.40;;;1.20;;
7033;SDS011;3558;53.176;10.412;2024-03-25T09:06:27;3.78;;;1.17;;
7033;SDS011;3558;53.176;10.412;2024-03-25T09:08:52;2.97;;;1.10;;
7033;SDS011;3558;53.176;10.412;2024-03-25T09:11:37;2.72;;;1.08;;
7033;SDS011;3558;53.176;10.412;2024-03-25T09:14:02;3.03;;;1.10;;
7033;SDS011;3558;53.176;10.412;2024-03-25T09:16:29;4.72;;;1.10;;
7033;SDS011;3558;53.176;10.412;2024-03-25T09:18:55;3.75;;;1.10;;
7033;SDS011;3558;53.176;10.412;2024-03-25T09:21:20;3.03;;;1.08;;
7033;SDS011;3558;53.176;10.412;2024-03-25T09:23:46;3.20;;;1.40;;
7033;SDS011;3558;53.176;10.412;2024-03-25T09:26:13;3.10;;;1.10;;
7033;SDS011;3558;53.176;10.412;2024-03-25T09:28:38;4.67;;;1.20;;
7033;SDS011;3558;53.176;10.412;2024-03-25T09:31:04;2.58;;;0.90;;
7033;SDS011;3558;53.176;10.412;2024-03-25T09:33:30;3.00;;;1.00;;
7033;SDS011;3558;53.176;10.412;2024-03-25T09:35:56;3.08;;;1.00;;
7033;SDS011;3558;53.176;10.412;2024-03-25T09:38:22;3.97;;;1.10;;
7033;SDS011;3558;53.176;10.412;2024-03-25T09:40:47;4.27;;;1.10;;
7033;SDS011;3558;53.176;10.412;2024-03-25T09:43:16;3.13;;;1.02;;
7033;SDS011;3558;53.176;10.412;2024-03-25T09:45:58;3.90;;;1.30;;
7033;SDS011;3558;53.176;10.412;2024-03-25T09:48:24;2.90;;;0.95;;
7033;SDS011;3558;53.176;10.412;2024-03-25T09:50:50;3.80;;;1.00;;
7033;SDS011;3558;53.176;10.412;2024-03-25T09:53:17;4.00;;;1.23;;
7033;SDS011;3558;53.176;10.412;2024-03-25T09:55:44;3.78;;;1.25;;
7033;SDS011;3558;53.176;10.412;2024-03-25T09:58:11;3.80;;;1.00;;
7033;SDS011;3558;53.176;10.412;2024-03-25T10:00:38;4.10;;;1.20;;
7033;SDS011;3558;53.176;10.412;2024-03-25T10:03:04;4.05;;;1.10;;
7033;SDS011;3558;53.176;10.412;2024-03-25T10:05:31;4.35;;;1.30;;
7033;SDS011;3558;53.176;10.412;2024-03-25T10:07:57;4.43;;;1.30;;
7033;SDS011;3558;53.176;10.412;2024-03-25T10:10:22;2.80;;;1.00;;
7033;SDS011;3558;53.176;10.412;2024-03-25T10:12:48;3.70;;;1.10;;
7033;SDS011;3558;53.176;10.412;2024-03-25T10:15:16;4.37;;;1.30;;
7033;SDS011;3558;53.176;10.412;2024-03-25T10:17:42;3.88;;;1.20;;
7033;SDS011;3558;53.176;10.412;2024-03-25T10:20:13;3.22;;;1.10;;
7033;SDS011;3558;53.176;10.412;2024-03-25T10:22:42;3.85;;;1.20;;
7033;SDS011;3558;53.176;10.412;2024-03-25T10:25:19;4.47;;;1.27;;
7033;SDS011;3558;53.176;10.412;2024-03-25T10:27:54;3.45;;;1.30;;
7033;SDS011;3558;53.176;10.412;2024-03-25T10:30:21;3.67;;;1.10;;
7033;SDS011;3558;53.176;10.412;2024-03-25T10:32:56;3.60;;;1.00;;
7033;SDS011;3558;53.176;10.412;2024-03-25T10:35:23;4.53;;;1.13;;
7033;SDS011;3558;53.176;10.412;2024-03-25T10:37:52;3.72;;;1.15;;
7033;SDS011;3558;53.176;10.412;2024-03-25T10:40:21;4.43;;;1.23;;
7033;SDS011;3558;53.176;10.412;2024-03-25T10:42:51;3.35;;;1.10;;
7033;SDS011;3558;53.176;10.412;2024-03-25T10:45:17;4.63;;;1.50;;
7033;SDS011;3558;53.176;10.412;2024-03-25T10:47:42;3.67;;;1.40;;
7033;SDS011;3558;53.176;10.412;2024-03-25T10:50:08;2.50;;;1.07;;
7033;SDS011;3558;53.176;10.412;2024-03-25T10:52:37;4.32;;;1.30;;
7033;SDS011;3558;53.176;10.412;2024-03-25T10:55:04;3.90;;;1.00;;
7033;SDS011;3558;53.176;10.412;2024-03-25T10:57:32;3.15;;;1.00;;
7033;SDS011;3558;53.176;10.412;2024-03-25T10:59:58;2.35;;;1.00;;
7033;SDS011;3558;53.176;10.412;2024-03-25T11:02:24;3.83;;;1.30;;
7033;SDS011;3558;53.176;10.412;2024-03-25T11:04:50;3.10;;;1.00;;
7033;SDS011;3558;53.176;10.412;2024-03-25T11:07:16;2.97;;;1.00;;
7033;SDS011;3558;53.176;10.412;2024-03-25T11:09:42;2.93;;;1.07;;
7033;SDS011;3558;53.176;10.412;2024-03-25T11:12:11;3.45;;;1.10;;
7033;SDS011;3558;53.176;10.412;2024-03-25T11:14:37;4.40;;;1.20;;
7033;SDS011;3558;53.176;10.412;2024-03-25T11:17:13;2.95;;;1.10;;
7033;SDS011;3558;53.176;10.412;2024-03-25T11:19:40;3.40;;;1.05;;
7033;SDS011;3558;53.176;10.412;2024-03-25T11:22:09;3.03;;;1.10;;
7033;SDS011;3558;53.176;10.412;2024-03-25T11:24:36;4.33;;;1.30;;
7033;SDS011;3558;53.176;10.412;2024-03-25T11:27:03;3.70;;;1.10;;
7033;SDS011;3558;53.176;10.412;2024-03-25T11:29:31;3.47;;;1.20;;
7033;SDS011;3558;53.176;10.412;2024-03-25T11:31:57;4.17;;;1.30;;
7033;SDS011;3558;53.176;10.412;2024-03-25T11:34:26;3.00;;;1.02;;
7033;SDS011;3558;53.176;10.412;2024-03-25T11:36:52;3.07;;;1.03;;
7033;SDS011;3558;53.176;10.412;2024-03-25T11:39:21;3.35;;;1.00;;
7033;SDS011;3558;53.176;10.412;2024-03-25T11:41:47;2.92;;;1.10;;
7033;SDS011;3558;53.176;10.412;2024-03-25T11:44:12;3.10;;;1.00;;
7033;SDS011;3558;53.176;10.412;2024-03-25T11:46:38;2.47;;;0.90;;
7033;SDS011;3558;53.176;10.412;2024-03-25T11:49:12;3.60;;;1.00;;
7033;SDS011;3558;53.176;10.412;2024-03-25T11:51:39;3.00;;;1.10;;
7033;SDS011;3558;53.176;10.412;2024-03-25T11:54:06;2.83;;;0.80;;
7033;SDS011;3558;53.176;10.412;2024-03-25T11:56:35;3.63;;;1.10;;
7033;SDS011;3558;53.176;10.412;2024-03-25T11:59:02;2.50;;;0.93;;
7033;SDS011;3558;53.176;10.412;2024-03-25T12:01:28;3.03;;;0.90;;
7033;SDS011;3558;53.176;10.412;2024-03-25T12:03:54;4.37;;;1.20;;
7033;SDS011;3558;53.176;10.412;2024-03-25T12:06:19;3.73;;;1.17;;
7033;SDS011;3558;53.176;10.412;2024-03-25T12:08:45;2.80;;;1.00;;
7033;SDS011;3558;53.176;10.412;2024-03-25T12:11:31;4.00;;;1.30;;
7033;SDS011;3558;53.176;10.412;2024-03-25T12:13:57;2.95;;;1.02;;
7033;SDS011;3558;53.176;10.412;2024-03-25T12:16:24;2.45;;;1.00;;
7033;SDS011;3558;53.176;10.412;2024-03-25T12:18:49;3.88;;;1.15;;
7033;SDS011;3558;53.176;10.412;2024-03-25T12:21:15;4.70;;;1.25;;
7033;SDS011;3558;53.176;10.412;2024-03-25T12:23:42;2.73;;;1.20;;
7033;SDS011;3558;53.176;10.412;2024-03-25T12:26:07;3.60;;;1.17;;
7033;SDS011;3558;53.176;10.412;2024-03-25T12:28:33;4.55;;;1.10;;
7033;SDS011;3558;53.176;10.412;2024-03-25T12:31:01;3.20;;;1.00;;
7033;SDS011;3558;53.176;10.412;2024-03-25T12:33:27;4.03;;;1.23;;
7033;SDS011;3558;53.176;10.412;2024-03-25T12:35:53;3.77;;;1.00;;
7033;SDS011;3558;53.176;10.412;2024-03-25T12:38:23;3.03;;;1.10;;
7033;SDS011;3558;53.176;10.412;2024-03-25T12:41:11;2.50;;;1.00;;
7033;SDS011;3558;53.176;10.412;2024-03-25T12:43:43;2.80;;;0.95;;
7033;SDS011;3558;53.176;10.412;2024-03-25T12:46:10;2.72;;;1.00;;
7033;SDS011;3558;53.176;10.412;2024-03-25T12:48:36;2.67;;;0.88;;
7033;SDS011;3558;53.176;10.412;2024-03-25T12:51:02;2.30;;;0.80;;
7033;SDS011;3558;53.176;10.412;2024-03-25T12:53:28;3.13;;;0.90;;
7033;SDS011;3558;53.176;10.412;2024-03-25T12:55:54;3.07;;;0.87;;
7033;SDS011;3558;53.176;10.412;2024-03-25T12:58:19;2.97;;;1.00;;
7033;SDS011;3558;53.176;10.412;2024-03-25T13:00:45;2.20;;;0.90;;
7033;SDS011;3558;53.176;10.412;2024-03-25T13:03:10;1.47;;;0.80;;
7033;SDS011;3558;53.176;10.412;2024-03-25T13:05:37;2.00;;;0.82;;
7033;SDS011;3558;53.176;10.412;2024-03-25T13:08:03;2.05;;;0.75;;
7033;SDS011;3558;53.176;10.412;2024-03-25T13:10:29;4.15;;;1.30;;
7033;SDS011;3558;53.176;10.412;2024-03-25T13:12:55;2.30;;;1.00;;
7033;SDS011;3558;53.176;10.412;2024-03-25T13:15:21;2.73;;;0.90;;
7033;SDS011;3558;53.176;10.412;2024-03-25T13:17:47;2.97;;;1.00;;
7033;SDS011;3558;53.176;10.412;2024-03-25T13:20:13;2.10;;;0.70;;
7033;SDS011;3558;53.176;10.412;2024-03-25T13:22:38;2.92;;;1.00;;
7033;SDS011;3558;53.176;10.412;2024-03-25T13:25:05;2.88;;;1.08;;
7033;SDS011;3558;53.176;10.412;2024-03-25T13:27:31;3.63;;;1.10;;
7033;SDS011;3558;53.176;10.412;2024-03-25T13:29:56;2.90;;;1.00;;
7033;SDS011;3558;53.176;10.412;2024-03-25T13:32:22;2.53;;;1.00;;
7033;SDS011;3558;53.176;10.412;2024-03-25T13:34:48;3.83;;;1.10;;
7033;SDS011;3558;53.176;10.412;2024-03-25T13:37:14;2.17;;;1.00;;
7033;SDS011;3558;53.176;10.412;2024-03-25T13:39:39;3.17;;;0.98;;
7033;SDS011;3558;53.176;10.412;2024-03-25T13:42:05;3.00;;;1.10;;
7033;SDS011;3558;53.176;10.412;2024-03-25T13:44:30;2.55;;;1.02;;
7033;SDS011;3558;53.176;10.412;2024-03-25T13:46:56;2.90;;;1.15;;
7033;SDS011;3558;53.176;10.412;2024-03-25T13:49:22;2.70;;;0.93;;
7033;SDS011;3558;53.176;10.412;2024-03-25T13:51:50;3.13;;;1.10;;
7033;SDS011;3558;53.176;10.412;2024-03-25T13:54:20;3.42;;;1.10;;
7033;SDS011;3558;53.176;10.412;2024-03-25T13:56:46;3.33;;;1.30;;
7033;SDS011;3558;53.176;10.412;2024-03-25T13:59:11;3.13;;;1.13;;
7033;SDS011;3558;53.176;10.412;2024-03-25T14:01:36;2.37;;;1.00;;
7033;SDS011;3558;53.176;10.412;2024-03-25T14:04:02;2.53;;;0.97;;
7033;SDS011;3558;53.176;10.412;2024-03-25T14:06:29;2.78;;;0.98;;
7033;SDS011;3558;53.176;10.412;2024-03-25T14:08:54;4.60;;;1.10;;
7033;SDS011;3558;53.176;10.412;2024-03-25T14:11:20;2.57;;;1.00;;
7033;SDS011;3558;53.176;10.412;2024-03-25T14:13:45;3.13;;;1.00;;
7033;SDS011;3558;53.176;10.412;2024-03-25T14:16:11;4.10;;;1.20;;
7033;SDS011;3558;53.176;10.412;2024-03-25T14:18:36;2.77;;;1.00;;
7033;SDS011;3558;53.176;10.412;2024-03-25T14:21:02;2.80;;;0.98;;
7033;SDS011;3558;53.176;10.412;2024-03-25T14:23:28;3.37;;;1.20;;
7033;SDS011;3558;53.176;10.412;2024-03-25T14:25:53;3.40;;;1.03;;
7033;SDS011;3558;53.176;10.412;2024-03-25T14:28:19;2.95;;;1.10;;
7033;SDS011;3558;53.176;10.412;2024-03-25T14:30:45;2.17;;;1.03;;
7033;SDS011;3558;53.176;10.412;2024-03-25T14:33:11;3.53;;;1.13;;
7033;SDS011;3558;53.176;10.412;2024-03-25T14:35:38;2.75;;;0.95;;
7033;SDS011;3558;53.176;10.412;2024-03-25T14:38:03;2.30;;;1.00;;
7033;SDS011;3558;53.176;10.412;2024-03-25T14:40:29;3.30;;;1.20;;
7033;SDS011;3558;53.176;10.412;2024-03-25T14:42:55;1.90;;;0.90;;
7033;SDS011;3558;53.176;10.412;2024-03-25T14:45:20;3.43;;;1.07;;
7033;SDS011;3558;53.176;10.412;2024-03-25T14:47:46;2.75;;;1.10;;
7033;SDS011;3558;53.176;10.412;2024-03-25T14:50:11;2.67;;;0.90;;
7033;SDS011;3558;53.176;10.412;2024-03-25T14:52:37;3.73;;;1.40;;
7033;SDS011;3558;53.176;10.412;2024-03-25T14:55:02;3.03;;;1.10;;
7033;SDS011;3558;53.176;10.412;2024-03-25T14:57:28;3.33;;;1.10;;
7033;SDS011;3558;53.176;10.412;2024-03-25T14:59:53;3.22;;;1.15;;
7033;SDS011;3558;53.176;10.412;2024-03-25T15:02:18;2.57;;;0.93;;
7033;SDS011;3558;53.176;10.412;2024-03-25T15:04:44;3.47;;;1.20;;
7033;SDS011;3558;53.176;10.412;2024-03-25T15:07:10;2.87;;;1.23;;
7033;SDS011;3558;53.176;10.412;2024-03-25T15:09:36;3.60;;;1.00;;
7033;SDS011;3558;53.176;10.412;2024-03-25T15:12:02;4.57;;;1.40;;
7033;SDS011;3558;53.176;10.412;2024-03-25T15:14:28;3.75;;;1.15;;
7033;SDS011;3558;53.176;10.412;2024-03-25T15:16:55;2.60;;;1.17;;
7033;SDS011;3558;53.176;10.412;2024-03-25T15:19:24;2.90;;;1.00;;
7033;SDS011;3558;53.176;10.412;2024-03-25T15:21:50;2.67;;;1.03;;
7033;SDS011;3558;53.176;10.412;2024-03-25T15:24:16;2.00;;;0.80;;
7033;SDS011;3558;53.176;10.412;2024-03-25T15:26:41;3.17;;;1.10;;
7033;SDS011;3558;53.176;10.412;2024-03-25T15:29:07;2.67;;;0.93;;
7033;SDS011;3558;53.176;10.412;2024-03-25T15:31:32;3.15;;;1.02;;
7033;SDS011;3558;53.176;10.412;2024-03-25T15:33:58;2.23;;;0.83;;
7033;SDS011;3558;53.176;10.412;2024-03-25T15:36:24;2.80;;;1.00;;
7033;SDS011;3558;53.176;10.412;2024-03-25T15:38:51;4.00;;;1.00;;
7033;SDS011;3558;53.176;10.412;2024-03-25T15:41:19;3.63;;;1.17;;
7033;SDS011;3558;53.176;10.412;2024-03-25T15:43:45;1.77;;;0.70;;
7033;SDS011;3558;53.176;10.412;2024-03-25T15:46:10;2.90;;;0.90;;
7033;SDS011;3558;53.176;10.412;2024-03-25T15:48:36;2.70;;;0.83;;
7033;SDS011;3558;53.176;10.412;2024-03-25T15:51:01;2.93;;;1.10;;
7033;SDS011;3558;53.176;10.412;2024-03-25T15:53:27;3.30;;;0.90;;
7033;SDS011;3558;53.176;10.412;2024-03-25T15:55:52;2.07;;;0.70;;
7033;SDS011;3558;53.176;10.412;2024-03-25T15:58:18;2.30;;;0.90;;
7033;SDS011;3558;53.176;10.412;2024-03-25T16:00:43;2.37;;;0.80;;
7033;SDS011;3558;53.176;10.412;2024-03-25T16:03:09;2.38;;;0.98;;
7033;SDS011;3558;53.176;10.412;2024-03-25T16:05:34;2.73;;;1.00;;
7033;SDS011;3558;53.176;10.412;2024-03-25T16:08:00;4.10;;;1.00;;
7033;SDS011;3558;53.176;10.412;2024-03-25T16:10:28;2.72;;;1.05;;
7033;SDS011;3558;53.176;10.412;2024-03-25T16:12:59;2.15;;;0.90;;
7033;SDS011;3558;53.176;10.412;2024-03-25T16:15:28;1.92;;;0.80;;
7033;SDS011;3558;53.176;10.412;2024-03-25T16:17:54;1.95;;;0.93;;
7033;SDS011;3558;53.176;10.412;2024-03-25T16:20:20;2.88;;;1.00;;
7033;SDS011;3558;53.176;10.412;2024-03-25T16:22:48;2.35;;;1.02;;
7033;SDS011;3558;53.176;10.412;2024-03-25T16:25:15;2.95;;;1.17;;
7033;SDS011;3558;53.176;10.412;2024-03-25T16:27:41;3.10;;;1.20;;
7033;SDS011;3558;53.176;10.412;2024-03-25T16:30:06;2.77;;;1.20;;
7033;SDS011;3558;53.176;10.412;2024-03-25T16:32:33;2.33;;;1.10;;
7033;SDS011;3558;53.176;10.412;2024-03-25T16:34:59;3.17;;;1.40;;
7033;SDS011;3558;53.176;10.412;2024-03-25T16:37:24;3.30;;;1.40;;
7033;SDS011;3558;53.176;10.412;2024-03-25T16:39:50;3.67;;;1.70;;
7033;SDS011;3558;53.176;10.412;2024-03-25T16:42:15;3.43;;;1.63;;
7033;SDS011;3558;53.176;10.412;2024-03-25T16:44:41;3.67;;;1.90;;
7033;SDS011;3558;53.176;10.412;2024-03-25T16:47:06;3.53;;;2.00;;
7033;SDS011;3558;53.176;10.412;2024-03-25T16:49:32;4.70;;;2.20;;
7033;SDS011;3558;53.176;10.412;2024-03-25T16:51:57;4.95;;;2.50;;
7033;SDS011;3558;53.176;10.412;2024-03-25T16:54:22;6.10;;;3.30;;
7033;SDS011;3558;53.176;10.412;2024-03-25T16:56:48;5.40;;;3.17;;
7033;SDS011;3558;53.176;10.412;2024-03-25T16:59:13;5.73;;;3.10;;
7033;SDS011;3558;53.176;10.412;2024-03-25T17:01:39;6.27;;;3.73;;
7033;SDS011;3558;53.176;10.412;2024-03-25T17:04:04;6.00;;;3.47;;
7033;SDS011;3558;53.176;10.412;2024-03-25T17:06:30;6.47;;;3.80;;
7033;SDS011;3558;53.176;10.412;2024-03-25T17:08:56;6.75;;;3.70;;
7033;SDS011;3558;53.176;10.412;2024-03-25T17:11:22;6.97;;;3.78;;
7033;SDS011;3558;53.176;10.412;2024-03-25T17:13:48;7.07;;;3.50;;
7033;SDS011;3558;53.176;10.412;2024-03-25T17:16:13;5.47;;;3.30;;
7033;SDS011;3558;53.176;10.412;2024-03-25T17:18:39;5.53;;;3.20;;
7033;SDS011;3558;53.176;10.412;2024-03-25T17:21:04;4.80;;;3.40;;
7033;SDS011;3558;53.176;10.412;2024-03-25T17:23:30;5.50;;;3.10;;
7033;SDS011;3558;53.176;10.412;2024-03-25T17:25:56;5.30;;;3.00;;
7033;SDS011;3558;53.176;10.412;2024-03-25T17:28:21;5.35;;;2.90;;
7033;SDS011;3558;53.176;10.412;2024-03-25T17:30:47;5.00;;;2.83;;
7033;SDS011;3558;53.176;10.412;2024-03-25T17:33:12;4.47;;;2.75;;
7033;SDS011;3558;53.176;10.412;2024-03-25T17:35:38;4.63;;;2.80;;
7033;SDS011;3558;53.176;10.412;2024-03-25T17:38:04;4.22;;;2.30;;
7033;SDS011;3558;53.176;10.412;2024-03-25T17:40:30;3.87;;;2.37;;
7033;SDS011;3558;53.176;10.412;2024-03-25T17:42:56;5.22;;;2.45;;
7033;SDS011;3558;53.176;10.412;2024-03-25T17:45:22;4.45;;;2.53;;
7033;SDS011;3558;53.176;10.412;2024-03-25T17:47:47;3.75;;;2.40;;
7033;SDS011;3558;53.176;10.412;2024-03-25T17:50:13;3.50;;;2.33;;
7033;SDS011;3558;53.176;10.412;2024-03-25T17:52:40;5.88;;;2.22;;
7033;SDS011;3558;53.176;10.412;2024-03-25T17:55:08;3.85;;;2.13;;
7033;SDS011;3558;53.176;10.412;2024-03-25T17:57:34;4.40;;;2.20;;
7033;SDS011;3558;53.176;10.412;2024-03-25T17:59:59;3.90;;;2.25;;
7033;SDS011;3558;53.176;10.412;2024-03-25T18:02:24;3.53;;;2.27;;
7033;SDS011;3558;53.176;10.412;2024-03-25T18:04:50;2.97;;;1.97;;
7033;SDS011;3558;53.176;10.412;2024-03-25T18:07:15;2.97;;;1.97;;
7033;SDS011;3558;53.176;10.412;2024-03-25T18:09:41;4.10;;;2.10;;
7033;SDS011;3558;53.176;10.412;2024-03-25T18:12:07;3.50;;;2.05;;
7033;SDS011;3558;53.176;10.412;2024-03-25T18:14:35;2.90;;;1.90;;
7033;SDS011;3558;53.176;10.412;2024-03-25T18:17:02;3.13;;;1.90;;
7033;SDS011;3558;53.176;10.412;2024-03-25T18:19:28;3.42;;;1.90;;
7033;SDS011;3558;53.176;10.412;2024-03-25T18:21:54;4.07;;;2.13;;
7033;SDS011;3558;53.176;10.412;2024-03-25T18:24:19;3.67;;;2.07;;
7033;SDS011;3558;53.176;10.412;2024-03-25T18:26:45;2.87;;;1.87;;
7033;SDS011;3558;53.176;10.412;2024-03-25T18:29:11;3.60;;;1.80;;
7033;SDS011;3558;53.176;10.412;2024-03-25T18:31:36;3.40;;;1.80;;
7033;SDS011;3558;53.176;10.412;2024-03-25T18:34:02;4.47;;;1.90;;
7033;SDS011;3558;53.176;10.412;2024-03-25T18:36:28;3.05;;;2.00;;
7033;SDS011;3558;53.176;10.412;2024-03-25T18:38:53;2.90;;;2.05;;
7033;SDS011;3558;53.176;10.412;2024-03-25T18:41:19;2.97;;;1.80;;